Time;durP1;ratioP1;P1;durP2;ratioP2;P2;SDS_P1;SDS_P2;PMS_P1;PMS_P2;Temp;Humidity;BMP_temperature;BMP_pressure;BME280_temperature;BME280_humidity;BME280_pressure;Samples;Min_cycle;Max_cycle;Signal;HPM_P1;HPM_P2
2023/11/01 00:00:44;;;;;;;7.63;2.90;;;;;;;;;;4935018;29;20215;-70
2023/11/01 00:03:15;;;;;;;3.97;2.42;;;;;;;;;;4934744;29;20573;-69
2023/11/01 00:05:43;;;;;;;6.90;3.40;;;;;;;;;;4933981;29;20204;-69
2023/11/01 00:08:11;;;;;;;3.20;2.90;;;;;;;;;;4935575;29;20683;-69
2023/11/01 00:10:39;;;;;;;5.00;2.90;;;;;;;;;;4934749;29;20231;-70
2023/11/01 00:13:07;;;;;;;5.13;4.22;;;;;;;;;;4934824;29;20212;-69
2023/11/01 00:15:35;;;;;;;4.72;4.20;;;;;;;;;;4934685;29;20216;-69
2023/11/01 00:18:04;;;;;;;9.77;3.30;;;;;;;;;;4936115;29;20216;-70
2023/11/01 00:20:34;;;;;;;5.65;3.20;;;;;;;;;;4934756;29;20585;-69
2023/11/01 00:23:02;;;;;;;8.55;3.60;;;;;;;;;;4935307;29;20207;-69
2023/11/01 00:25:30;;;;;;;4.65;3.35;;;;;;;;;;4933905;29;20205;-70
2023/11/01 00:27:58;;;;;;;3.83;3.20;;;;;;;;;;4933922;29;20212;-69
2023/11/01 00:30:26;;;;;;;4.68;3.45;;;;;;;;;;4934606;29;20232;-69
2023/11/01 00:32:55;;;;;;;6.85;3.40;;;;;;;;;;4935179;29;20217;-70
2023/11/01 00:35:23;;;;;;;5.10;3.60;;;;;;;;;;4934296;29;20196;-69
2023/11/01 00:37:52;;;;;;;6.50;3.47;;;;;;;;;;4934606;29;20228;-69
2023/11/01 00:40:20;;;;;;;4.43;3.70;;;;;;;;;;4934738;29;20211;-69
2023/11/01 00:42:49;;;;;;;5.57;3.95;;;;;;;;;;4934801;29;20208;-69
2023/11/01 00:45:17;;;;;;;8.82;4.03;;;;;;;;;;4932909;29;20215;-69
2023/11/01 00:47:45;;;;;;;7.47;3.65;;;;;;;;;;4936593;29;20192;-66
2023/11/01 00:50:13;;;;;;;7.70;3.90;;;;;;;;;;4934896;29;20224;-66
2023/11/01 00:52:41;;;;;;;4.22;3.38;;;;;;;;;;4934554;29;20215;-66
2023/11/01 00:55:11;;;;;;;6.22;3.78;;;;;;;;;;4932827;29;20205;-66
2023/11/01 00:57:40;;;;;;;3.97;3.50;;;;;;;;;;4934306;29;20215;-66
2023/11/01 01:00:09;;;;;;;4.57;3.88;;;;;;;;;;4934198;29;20204;-66
2023/11/01 01:02:37;;;;;;;9.18;4.55;;;;;;;;;;4931749;29;20207;-66
2023/11/01 01:05:05;;;;;;;6.70;3.78;;;;;;;;;;4928227;29;20211;-66
2023/11/01 01:07:34;;;;;;;3.22;2.90;;;;;;;;;;4934580;29;20220;-66
2023/11/01 01:10:02;;;;;;;9.07;3.30;;;;;;;;;;4934180;29;20226;-66
2023/11/01 01:12:32;;;;;;;4.60;3.53;;;;;;;;;;4933344;29;20212;-66
2023/11/01 01:15:01;;;;;;;8.82;3.95;;;;;;;;;;4934315;29;20219;-66
2023/11/01 01:17:29;;;;;;;4.65;3.38;;;;;;;;;;4933097;29;20218;-66
2023/11/01 01:19:57;;;;;;;6.65;3.40;;;;;;;;;;4933900;29;20200;-66
2023/11/01 01:22:25;;;;;;;5.03;3.38;;;;;;;;;;4932912;29;20204;-66
2023/11/01 01:24:54;;;;;;;12.13;3.75;;;;;;;;;;4933893;29;20209;-66
2023/11/01 01:27:22;;;;;;;8.38;4.10;;;;;;;;;;4933190;29;20568;-66
2023/11/01 01:29:52;;;;;;;8.55;3.53;;;;;;;;;;4933781;29;20258;-66
2023/11/01 01:32:20;;;;;;;7.75;4.35;;;;;;;;;;4933025;29;20209;-66
2023/11/01 01:34:48;;;;;;;7.88;3.65;;;;;;;;;;4933454;29;20559;-66
2023/11/01 01:37:16;;;;;;;7.72;3.55;;;;;;;;;;4934789;29;20735;-67
2023/11/01 01:39:44;;;;;;;9.05;5.35;;;;;;;;;;4937049;29;20197;-66
2023/11/01 01:42:13;;;;;;;11.02;4.00;;;;;;;;;;4938278;29;20204;-66
2023/11/01 01:44:41;;;;;;;6.18;3.85;;;;;;;;;;4925801;29;20237;-66
2023/11/01 01:47:11;;;;;;;13.85;4.07;;;;;;;;;;4931671;29;20216;-66
2023/11/01 01:49:39;;;;;;;12.98;3.85;;;;;;;;;;4937865;29;20231;-66
2023/11/01 01:52:08;;;;;;;3.97;3.63;;;;;;;;;;4937685;29;20211;-66
2023/11/01 01:54:36;;;;;;;4.28;3.75;;;;;;;;;;4937907;29;20216;-67
2023/11/01 01:57:04;;;;;;;7.60;3.60;;;;;;;;;;4937307;29;20213;-66
2023/11/01 01:59:33;;;;;;;6.68;4.15;;;;;;;;;;4938013;29;20221;-66
2023/11/01 02:02:01;;;;;;;4.30;3.05;;;;;;;;;;4937727;29;20271;-64
2023/11/01 02:04:31;;;;;;;6.97;3.40;;;;;;;;;;4938396;29;20211;-66
2023/11/01 02:06:59;;;;;;;4.38;2.95;;;;;;;;;;4939124;29;20579;-64
2023/11/01 02:09:27;;;;;;;3.90;3.13;;;;;;;;;;4939493;29;20240;-64
2023/11/01 02:11:55;;;;;;;4.50;3.20;;;;;;;;;;4939475;29;20220;-64
2023/11/01 02:14:23;;;;;;;9.30;3.38;;;;;;;;;;4938737;29;20204;-66
2023/11/01 02:16:52;;;;;;;3.17;2.70;;;;;;;;;;4951279;29;20200;-64
2023/11/01 02:19:21;;;;;;;11.00;2.83;;;;;;;;;;4939304;29;20215;-64
2023/11/01 02:21:51;;;;;;;5.63;2.90;;;;;;;;;;4942596;29;20252;-64
2023/11/01 02:24:21;;;;;;;9.43;3.97;;;;;;;;;;4957514;29;20212;-64
2023/11/01 02:26:49;;;;;;;5.40;3.00;;;;;;;;;;4955771;29;20200;-64
2023/11/01 02:29:17;;;;;;;4.82;3.90;;;;;;;;;;4958721;29;20212;-65
2023/11/01 02:31:45;;;;;;;8.77;3.17;;;;;;;;;;4950900;29;20231;-65
2023/11/01 02:34:14;;;;;;;4.57;3.17;;;;;;;;;;4939247;29;20267;-65
2023/11/01 02:36:42;;;;;;;3.65;3.00;;;;;;;;;;4941351;29;20200;-64
2023/11/01 02:39:10;;;;;;;6.72;2.95;;;;;;;;;;4948827;29;20238;-65
2023/11/01 02:41:40;;;;;;;3.28;2.67;;;;;;;;;;4958138;29;20232;-64
2023/11/01 02:44:08;;;;;;;7.25;2.83;;;;;;;;;;4952910;28;20233;-64
2023/11/01 02:46:36;;;;;;;7.40;3.53;;;;;;;;;;4940614;29;20267;-68
2023/11/01 02:49:04;;;;;;;4.88;2.90;;;;;;;;;;4940403;28;20642;-65
2023/11/01 02:51:32;;;;;;;3.53;3.25;;;;;;;;;;4941296;29;20216;-64
2023/11/01 02:54:01;;;;;;;6.63;3.38;;;;;;;;;;4937681;29;20213;-64
2023/11/01 02:56:29;;;;;;;6.97;3.30;;;;;;;;;;4939178;29;20214;-64
2023/11/01 02:58:58;;;;;;;6.65;2.75;;;;;;;;;;4939333;29;20240;-65
2023/11/01 03:01:26;;;;;;;9.98;3.30;;;;;;;;;;4940542;29;20201;-64
2023/11/01 03:03:55;;;;;;;7.38;3.25;;;;;;;;;;4939412;29;20208;-64
2023/11/01 03:06:23;;;;;;;10.02;4.03;;;;;;;;;;4937218;29;20212;-64
2023/11/01 03:08:51;;;;;;;8.60;3.42;;;;;;;;;;4955747;29;20565;-64
2023/11/01 03:11:19;;;;;;;7.57;2.92;;;;;;;;;;4956794;29;20230;-69
2023/11/01 03:13:47;;;;;;;4.18;3.78;;;;;;;;;;4953033;29;20210;-69
2023/11/01 03:16:18;;;;;;;5.35;3.30;;;;;;;;;;4955386;29;20701;-69
2023/11/01 03:18:46;;;;;;;8.88;3.90;;;;;;;;;;4955389;29;20210;-69
2023/11/01 03:21:14;;;;;;;4.22;3.17;;;;;;;;;;4949522;29;20204;-69
2023/11/01 03:23:42;;;;;;;4.60;3.75;;;;;;;;;;4937467;29;20205;-69
2023/11/01 03:26:11;;;;;;;4.22;3.10;;;;;;;;;;4935953;29;20215;-71
2023/11/01 03:28:39;;;;;;;10.57;3.50;;;;;;;;;;4923394;29;20215;-69
2023/11/01 03:31:07;;;;;;;5.25;3.30;;;;;;;;;;4935775;29;20707;-69
2023/11/01 03:33:37;;;;;;;5.25;3.55;;;;;;;;;;4934904;29;20598;-69
2023/11/01 03:36:07;;;;;;;7.90;3.35;;;;;;;;;;4935986;29;20676;-69
2023/11/01 03:38:35;;;;;;;7.28;3.80;;;;;;;;;;4935132;29;20232;-70
2023/11/01 03:41:04;;;;;;;6.88;3.78;;;;;;;;;;4916240;29;20210;-69
2023/11/01 03:43:33;;;;;;;4.53;3.38;;;;;;;;;;4915933;29;20229;-69
2023/11/01 03:46:01;;;;;;;13.15;4.03;;;;;;;;;;4905285;29;20225;-69
2023/11/01 03:48:30;;;;;;;11.45;3.58;;;;;;;;;;4935699;29;20212;-70
2023/11/01 03:50:59;;;;;;;10.48;3.75;;;;;;;;;;4935117;29;20220;-70
2023/11/01 03:53:27;;;;;;;3.95;3.53;;;;;;;;;;4934181;29;20219;-69
2023/11/01 03:55:56;;;;;;;7.47;4.30;;;;;;;;;;4935108;29;21168;-69
2023/11/01 03:58:24;;;;;;;8.02;4.00;;;;;;;;;;4937378;29;20210;-69
2023/11/01 04:00:52;;;;;;;9.63;4.22;;;;;;;;;;4934008;29;20213;-68
2023/11/01 04:03:20;;;;;;;5.80;3.45;;;;;;;;;;4945391;29;20201;-68
2023/11/01 04:05:48;;;;;;;8.45;3.90;;;;;;;;;;4933543;29;20209;-70
2023/11/01 04:08:18;;;;;;;5.10;3.25;;;;;;;;;;4935330;29;20208;-68
2023/11/01 04:10:46;;;;;;;9.18;3.70;;;;;;;;;;4934592;29;20605;-69
2023/11/01 04:13:14;;;;;;;6.03;3.55;;;;;;;;;;4935535;29;20213;-69
2023/11/01 04:15:43;;;;;;;6.32;3.33;;;;;;;;;;4934563;29;20216;-69
2023/11/01 04:18:11;;;;;;;4.95;2.90;;;;;;;;;;4935567;29;20565;-69
2023/11/01 04:20:39;;;;;;;25.70;3.92;;;;;;;;;;4934361;29;20208;-69
2023/11/01 04:23:07;;;;;;;4.93;2.85;;;;;;;;;;4934680;29;20212;-69
2023/11/01 04:25:36;;;;;;;4.22;3.35;;;;;;;;;;4934384;29;20209;-69
2023/11/01 04:28:06;;;;;;;5.22;3.42;;;;;;;;;;4935376;29;20568;-69
2023/11/01 04:30:38;;;;;;;8.75;3.17;;;;;;;;;;4934247;29;20213;-69
2023/11/01 04:33:07;;;;;;;6.45;3.03;;;;;;;;;;4934186;29;20564;-67
2023/11/01 04:35:35;;;;;;;8.23;2.95;;;;;;;;;;4934501;29;20235;-70
2023/11/01 04:38:04;;;;;;;134.43;85.63;;;;;;;;;;4933896;29;20290;-69
2023/11/01 04:40:34;;;;;;;14.57;12.90;;;;;;;;;;4933933;29;20728;-70
2023/11/01 04:43:03;;;;;;;3.10;2.80;;;;;;;;;;4935119;29;20224;-69
2023/11/01 04:45:32;;;;;;;5.20;2.55;;;;;;;;;;4917091;29;20216;-69
2023/11/01 04:48:00;;;;;;;8.70;3.72;;;;;;;;;;4931765;29;20212;-69
2023/11/01 04:50:28;;;;;;;4.45;4.05;;;;;;;;;;4933808;29;20215;-69
2023/11/01 04:52:57;;;;;;;5.63;3.42;;;;;;;;;;4934716;29;20232;-68
2023/11/01 04:55:25;;;;;;;2.70;2.50;;;;;;;;;;4932889;29;20605;-69
2023/11/01 04:57:53;;;;;;;4.95;2.72;;;;;;;;;;4934762;29;20213;-69
2023/11/01 05:00:23;;;;;;;3.28;1.92;;;;;;;;;;4933091;29;20533;-69
2023/11/01 05:02:51;;;;;;;3.38;2.08;;;;;;;;;;4933102;29;20212;-69
2023/11/01 05:05:19;;;;;;;5.00;2.40;;;;;;;;;;4932920;29;20200;-69
2023/11/01 05:07:47;;;;;;;5.78;2.30;;;;;;;;;;4933998;29;20267;-70
2023/11/01 05:10:16;;;;;;;5.32;2.40;;;;;;;;;;4934148;29;20212;-70
2023/11/01 05:12:44;;;;;;;6.55;3.00;;;;;;;;;;4933708;29;20259;-69
2023/11/01 05:15:12;;;;;;;2.88;2.67;;;;;;;;;;4934169;29;20216;-70
2023/11/01 05:17:42;;;;;;;2.80;2.17;;;;;;;;;;4933851;29;20208;-70
2023/11/01 05:20:11;;;;;;;4.50;2.35;;;;;;;;;;4933974;29;20211;-68
2023/11/01 05:22:41;;;;;;;3.55;2.00;;;;;;;;;;4931478;29;20207;-69
2023/11/01 05:25:13;;;;;;;4.72;2.13;;;;;;;;;;4933781;29;20275;-70
2023/11/01 05:27:41;;;;;;;2.67;2.03;;;;;;;;;;4938931;29;20193;-67
2023/11/01 05:30:14;;;;;;;4.30;1.92;;;;;;;;;;4934489;29;20200;-67
2023/11/01 05:32:45;;;;;;;4.70;1.95;;;;;;;;;;4933951;29;20224;-67
2023/11/01 05:35:13;;;;;;;5.32;2.92;;;;;;;;;;4934675;29;20189;-67
2023/11/01 05:37:41;;;;;;;4.43;3.58;;;;;;;;;;4933661;29;20627;-67
2023/11/01 05:40:13;;;;;;;4.60;2.88;;;;;;;;;;4933817;29;20215;-67
2023/11/01 05:42:41;;;;;;;6.95;5.82;;;;;;;;;;4935274;29;20641;-67
2023/11/01 05:45:10;;;;;;;7.40;2.65;;;;;;;;;;4934416;29;20200;-67
2023/11/01 05:47:38;;;;;;;5.30;2.95;;;;;;;;;;4932966;29;20215;-67
2023/11/01 05:50:09;;;;;;;2.95;2.70;;;;;;;;;;4934097;29;20208;-67
2023/11/01 05:52:37;;;;;;;5.97;5.47;;;;;;;;;;4932549;29;20738;-67
2023/11/01 05:55:06;;;;;;;7.95;3.00;;;;;;;;;;4932799;29;20641;-67
2023/11/01 05:57:36;;;;;;;5.32;2.53;;;;;;;;;;4934806;29;20572;-67
2023/11/01 06:00:08;;;;;;;4.10;2.60;;;;;;;;;;4933006;29;20200;-68
2023/11/01 06:02:37;;;;;;;2.60;2.40;;;;;;;;;;4936506;29;20215;-67
2023/11/01 06:05:06;;;;;;;5.70;2.20;;;;;;;;;;4933397;29;20219;-67
2023/11/01 06:07:35;;;;;;;2.75;2.33;;;;;;;;;;4933281;29;20722;-67
2023/11/01 06:10:04;;;;;;;2.95;2.15;;;;;;;;;;4936541;29;20211;-67
2023/11/01 06:12:32;;;;;;;6.20;2.35;;;;;;;;;;4945282;29;20221;-67
2023/11/01 06:15:00;;;;;;;8.98;2.00;;;;;;;;;;4915044;29;20596;-67
2023/11/01 06:17:28;;;;;;;5.35;2.20;;;;;;;;;;4915269;29;20206;-67
2023/11/01 06:19:56;;;;;;;2.75;1.83;;;;;;;;;;4915057;29;20221;-67
2023/11/01 06:22:24;;;;;;;4.03;2.00;;;;;;;;;;4915129;29;20216;-67
2023/11/01 06:24:54;;;;;;;5.78;2.20;;;;;;;;;;4918390;29;20610;-67
2023/11/01 06:27:22;;;;;;;5.45;2.25;;;;;;;;;;4928315;29;20216;-67
2023/11/01 06:29:52;;;;;;;4.32;1.75;;;;;;;;;;4937594;29;20581;-67
2023/11/01 06:32:21;;;;;;;5.47;2.03;;;;;;;;;;4934621;29;20228;-67
2023/11/01 06:34:49;;;;;;;2.75;2.42;;;;;;;;;;4925680;29;20276;-67
2023/11/01 06:37:17;;;;;;;4.15;2.28;;;;;;;;;;4929563;29;20237;-66
2023/11/01 06:39:45;;;;;;;3.45;2.40;;;;;;;;;;4921271;29;20211;-67
2023/11/01 06:42:15;;;;;;;9.57;1.90;;;;;;;;;;4926195;29;20204;-67
2023/11/01 06:44:43;;;;;;;2.67;1.85;;;;;;;;;;4934636;29;20246;-67
2023/11/01 06:47:11;;;;;;;4.32;1.88;;;;;;;;;;4925412;29;20735;-67
2023/11/01 06:49:39;;;;;;;6.65;2.35;;;;;;;;;;4936006;29;20205;-67
2023/11/01 06:52:08;;;;;;;5.22;2.22;;;;;;;;;;4939573;29;20228;-67
2023/11/01 06:54:38;;;;;;;5.05;2.05;;;;;;;;;;4934963;29;20219;-68
2023/11/01 06:57:06;;;;;;;4.88;2.05;;;;;;;;;;4936654;29;20217;-66
2023/11/01 06:59:35;;;;;;;8.60;2.90;;;;;;;;;;4936388;29;20665;-67
2023/11/01 07:02:04;;;;;;;4.10;2.33;;;;;;;;;;4934477;29;20217;-67
2023/11/01 07:04:32;;;;;;;2.97;2.03;;;;;;;;;;4935839;29;20200;-67
2023/11/01 07:07:01;;;;;;;4.25;2.80;;;;;;;;;;4934588;29;20213;-67
2023/11/01 07:09:29;;;;;;;6.15;3.15;;;;;;;;;;4924534;29;20213;-67
2023/11/01 07:11:57;;;;;;;5.85;2.30;;;;;;;;;;4933797;29;20212;-67
2023/11/01 07:14:26;;;;;;;3.63;2.05;;;;;;;;;;4935254;29;20856;-67
2023/11/01 07:16:55;;;;;;;4.85;3.45;;;;;;;;;;4935762;29;20219;-67
2023/11/01 07:19:24;;;;;;;2.88;1.70;;;;;;;;;;4934496;29;20201;-67
2023/11/01 07:21:52;;;;;;;3.65;1.83;;;;;;;;;;4936216;29;20701;-67
2023/11/01 07:24:20;;;;;;;5.13;2.40;;;;;;;;;;4935951;29;20212;-67
2023/11/01 07:26:48;;;;;;;3.67;2.47;;;;;;;;;;4925617;29;20208;-67
2023/11/01 07:29:16;;;;;;;5.67;2.00;;;;;;;;;;4917840;29;20657;-67
2023/11/01 07:31:45;;;;;;;2.58;1.77;;;;;;;;;;4918150;29;20712;-67
2023/11/01 07:34:14;;;;;;;7.85;1.80;;;;;;;;;;4917743;29;20225;-67
2023/11/01 07:36:43;;;;;;;3.08;1.77;;;;;;;;;;4932299;29;20215;-67
2023/11/01 07:39:11;;;;;;;4.22;2.00;;;;;;;;;;4938434;29;20240;-67
2023/11/01 07:41:39;;;;;;;5.97;1.90;;;;;;;;;;4926129;28;20204;-67
2023/11/01 07:44:08;;;;;;;9.75;2.10;;;;;;;;;;4946657;28;20232;-67
2023/11/01 07:46:36;;;;;;;4.10;1.97;;;;;;;;;;4922792;29;20672;-67
2023/11/01 07:49:04;;;;;;;4.70;1.83;;;;;;;;;;4935153;29;20988;-67
2023/11/01 07:51:35;;;;;;;4.05;2.33;;;;;;;;;;4932509;29;20212;-67
2023/11/01 07:54:03;;;;;;;4.93;1.90;;;;;;;;;;4931062;29;20217;-67
2023/11/01 07:56:32;;;;;;;6.45;2.00;;;;;;;;;;4937548;29;20587;-67
2023/11/01 07:59:00;;;;;;;2.35;2.15;;;;;;;;;;4935533;29;20204;-67
2023/11/01 08:01:28;;;;;;;4.75;2.00;;;;;;;;;;4934356;29;20208;-67
2023/11/01 08:03:56;;;;;;;6.60;1.92;;;;;;;;;;4928357;29;20656;-67
2023/11/01 08:06:24;;;;;;;4.38;1.92;;;;;;;;;;4935021;29;20215;-67
2023/11/01 08:08:54;;;;;;;4.93;1.73;;;;;;;;;;4935126;29;20674;-67
2023/11/01 08:11:22;;;;;;;10.73;2.47;;;;;;;;;;4935068;29;20665;-67
2023/11/01 08:13:50;;;;;;;2.85;2.08;;;;;;;;;;4934947;29;20225;-67
2023/11/01 08:16:18;;;;;;;2.63;2.40;;;;;;;;;;4935510;29;20205;-67
2023/11/01 08:18:47;;;;;;;2.78;2.10;;;;;;;;;;4935647;29;20205;-67
2023/11/01 08:21:15;;;;;;;2.30;1.70;;;;;;;;;;4940758;29;20205;-67
2023/11/01 08:23:44;;;;;;;5.30;1.90;;;;;;;;;;4936528;29;20197;-67
2023/11/01 08:26:17;;;;;;;17.25;2.33;;;;;;;;;;4938297;29;20212;-67
2023/11/01 08:28:45;;;;;;;4.57;1.90;;;;;;;;;;4950737;29;20607;-66
2023/11/01 08:31:13;;;;;;;2.37;1.57;;;;;;;;;;4937158;29;20632;-67
2023/11/01 08:33:41;;;;;;;6.68;2.20;;;;;;;;;;4935522;29;20639;-67
2023/11/01 08:36:10;;;;;;;6.07;2.30;;;;;;;;;;4938665;29;20212;-67
2023/11/01 08:38:38;;;;;;;3.93;1.80;;;;;;;;;;4954049;28;20641;-67
2023/11/01 08:41:08;;;;;;;3.33;3.03;;;;;;;;;;4952197;29;20625;-67
2023/11/01 08:43:37;;;;;;;2.20;1.83;;;;;;;;;;4931117;29;20667;-67
2023/11/01 08:46:06;;;;;;;2.80;2.07;;;;;;;;;;4944889;28;20636;-67
2023/11/01 08:48:34;;;;;;;1.70;1.60;;;;;;;;;;4934937;29;20603;-67
2023/11/01 08:51:02;;;;;;;3.77;2.47;;;;;;;;;;4933871;29;20641;-67
2023/11/01 08:53:30;;;;;;;3.17;2.90;;;;;;;;;;4937136;29;20693;-66
2023/11/01 08:55:58;;;;;;;2.50;1.67;;;;;;;;;;4934245;29;20629;-67
2023/11/01 08:58:26;;;;;;;4.13;1.77;;;;;;;;;;4933942;29;20610;-67
2023/11/01 09:00:57;;;;;;;9.73;1.67;;;;;;;;;;4936439;29;20632;-67
2023/11/01 09:03:25;;;;;;;4.10;2.03;;;;;;;;;;4932923;29;20614;-67
2023/11/01 09:05:54;;;;;;;5.10;2.23;;;;;;;;;;4937480;29;20639;-66
2023/11/01 09:08:24;;;;;;;3.67;1.83;;;;;;;;;;4933262;29;20651;-65
2023/11/01 09:10:52;;;;;;;4.57;1.90;;;;;;;;;;4934336;29;20623;-66
2023/11/01 09:13:22;;;;;;;3.87;1.30;;;;;;;;;;4933868;29;20668;-65
2023/11/01 09:15:50;;;;;;;7.90;2.00;;;;;;;;;;4934153;29;20674;-66
2023/11/01 09:18:20;;;;;;;1.53;1.13;;;;;;;;;;4922580;29;20708;-66
2023/11/01 09:20:48;;;;;;;4.23;1.97;;;;;;;;;;4915487;29;20596;-65
2023/11/01 09:23:17;;;;;;;5.00;1.98;;;;;;;;;;4937454;29;20773;-65
2023/11/01 09:25:45;;;;;;;8.63;2.10;;;;;;;;;;4935113;29;20212;-65
2023/11/01 09:28:14;;;;;;;3.90;1.67;;;;;;;;;;4942693;29;20652;-66
2023/11/01 09:30:42;;;;;;;4.93;2.07;;;;;;;;;;4931930;29;20611;-65
2023/11/01 09:33:10;;;;;;;3.93;2.67;;;;;;;;;;4931022;29;21037;-65
2023/11/01 09:35:39;;;;;;;4.37;1.80;;;;;;;;;;4927536;29;20645;-66
2023/11/01 09:38:08;;;;;;;5.73;1.90;;;;;;;;;;4933881;29;20660;-66
2023/11/01 09:40:36;;;;;;;1.80;1.70;;;;;;;;;;4934727;29;20591;-65
2023/11/01 09:43:05;;;;;;;3.10;1.87;;;;;;;;;;4934484;29;20656;-65
2023/11/01 09:45:33;;;;;;;3.80;2.43;;;;;;;;;;4929315;29;20661;-66
2023/11/01 09:48:02;;;;;;;7.20;2.00;;;;;;;;;;4934184;29;21048;-65
2023/11/01 09:50:35;;;;;;;4.20;1.80;;;;;;;;;;4934280;29;20624;-65
2023/11/01 09:53:04;;;;;;;3.17;1.77;;;;;;;;;;4934143;29;20937;-65
2023/11/01 09:55:33;;;;;;;5.57;2.00;;;;;;;;;;4934569;29;21030;-65
2023/11/01 09:58:01;;;;;;;3.37;2.03;;;;;;;;;;4932085;29;20633;-65
2023/11/01 10:00:31;;;;;;;3.00;1.40;;;;;;;;;;4924912;29;20621;-66
2023/11/01 10:02:59;;;;;;;1.73;1.63;;;;;;;;;;4937272;29;20604;-66
2023/11/01 10:05:27;;;;;;;1.87;1.77;;;;;;;;;;4936715;29;20632;-66
2023/11/01 10:07:56;;;;;;;3.30;1.60;;;;;;;;;;4920241;29;20633;-65
2023/11/01 10:10:25;;;;;;;2.27;1.60;;;;;;;;;;4936533;29;20640;-66
2023/11/01 10:12:54;;;;;;;3.00;1.60;;;;;;;;;;4934499;29;20983;-65
2023/11/01 10:15:22;;;;;;;2.17;1.53;;;;;;;;;;4936169;29;20664;-65
2023/11/01 10:17:52;;;;;;;3.37;1.80;;;;;;;;;;4930874;29;20624;-65
2023/11/01 10:20:23;;;;;;;9.10;1.90;;;;;;;;;;4937058;29;21010;-65
2023/11/01 10:22:51;;;;;;;1.93;1.70;;;;;;;;;;4935574;29;20608;-65
2023/11/01 10:25:20;;;;;;;2.63;1.50;;;;;;;;;;4936990;29;20628;-65
2023/11/01 10:27:49;;;;;;;5.03;2.00;;;;;;;;;;4937264;29;20612;-65
2023/11/01 10:30:18;;;;;;;2.03;1.10;;;;;;;;;;4936678;29;20594;-65
2023/11/01 10:32:56;;;;;;;1.60;1.50;;;;;;;;;;4925663;29;20989;-65
2023/11/01 10:35:24;;;;;;;2.50;1.67;;;;;;;;;;4935241;29;20793;-65
2023/11/01 10:38:00;;;;;;;1.97;1.70;;;;;;;;;;4936856;29;20662;-66
2023/11/01 10:40:29;;;;;;;8.10;2.83;;;;;;;;;;4936967;29;20618;-65
2023/11/01 10:43:00;;;;;;;3.40;3.10;;;;;;;;;;4932207;29;20628;-66
2023/11/01 10:45:28;;;;;;;4.87;3.53;;;;;;;;;;4934548;29;20647;-66
2023/11/01 10:47:56;;;;;;;3.80;3.50;;;;;;;;;;4930030;29;20648;-66
2023/11/01 10:50:27;;;;;;;3.40;3.20;;;;;;;;;;4935501;29;20952;-66
2023/11/01 10:52:55;;;;;;;4.23;3.80;;;;;;;;;;4935679;29;20634;-65
2023/11/01 10:55:24;;;;;;;4.90;4.43;;;;;;;;;;4932922;29;20711;-65
2023/11/01 10:57:53;;;;;;;4.53;4.30;;;;;;;;;;4933704;29;20631;-65
2023/11/01 11:00:24;;;;;;;5.13;4.83;;;;;;;;;;4931941;29;20644;-65
2023/11/01 11:02:54;;;;;;;7.30;4.80;;;;;;;;;;4928856;29;20632;-65
2023/11/01 11:05:24;;;;;;;4.50;4.20;;;;;;;;;;4935623;29;20617;-65
2023/11/01 11:07:54;;;;;;;4.27;3.97;;;;;;;;;;4936151;29;20608;-65
2023/11/01 11:10:23;;;;;;;4.40;4.00;;;;;;;;;;4935004;29;21043;-65
2023/11/01 11:13:16;;;;;;;4.60;4.20;;;;;;;;;;4934751;29;20655;-64
2023/11/01 11:16:02;;;;;;;4.50;3.23;;;;;;;;;;4925765;29;20669;-65
2023/11/01 11:18:45;;;;;;;3.40;3.20;;;;;;;;;;4938822;29;20619;-65
2023/11/01 11:21:28;;;;;;;4.30;3.30;;;;;;;;;;4935241;29;20639;-65
2023/11/01 11:23:57;;;;;;;4.20;2.90;;;;;;;;;;4934880;29;20695;-64
2023/11/01 11:26:39;;;;;;;7.50;3.10;;;;;;;;;;4935300;29;21163;-64
2023/11/01 11:29:32;;;;;;;4.40;3.07;;;;;;;;;;4935792;29;20639;-65
2023/11/01 11:32:01;;;;;;;3.03;2.80;;;;;;;;;;4927785;29;21035;-64
2023/11/01 11:34:31;;;;;;;5.43;3.23;;;;;;;;;;4935165;29;20639;-64
2023/11/01 11:37:11;;;;;;;2.97;2.67;;;;;;;;;;4934202;29;20968;-64
2023/11/01 11:39:53;;;;;;;4.33;3.00;;;;;;;;;;4935369;29;20612;-65
2023/11/01 11:42:40;;;;;;;4.27;3.70;;;;;;;;;;4935405;29;20579;-67
2023/11/01 11:45:09;;;;;;;3.50;3.20;;;;;;;;;;4936601;29;21190;-66
2023/11/01 11:47:38;;;;;;;4.60;4.30;;;;;;;;;;4931517;29;20635;-66
2023/11/01 11:50:07;;;;;;;6.13;5.17;;;;;;;;;;4933112;29;20624;-67
2023/11/01 11:52:35;;;;;;;17.70;6.67;;;;;;;;;;4932545;29;20975;-66
2023/11/01 11:55:04;;;;;;;8.67;7.80;;;;;;;;;;4935195;29;20660;-66
2023/11/01 11:57:32;;;;;;;6.33;5.70;;;;;;;;;;4935448;29;20966;-66
2023/11/01 12:00:04;;;;;;;6.10;5.13;;;;;;;;;;4934395;29;20621;-66
2023/11/01 12:02:33;;;;;;;8.80;7.43;;;;;;;;;;4933349;29;20584;-66
2023/11/01 12:05:04;;;;;;;7.70;6.97;;;;;;;;;;4934718;29;20671;-67
2023/11/01 12:07:32;;;;;;;7.77;6.20;;;;;;;;;;4935642;29;20585;-66
2023/11/01 12:10:00;;;;;;;5.43;5.13;;;;;;;;;;4934515;29;20647;-65
2023/11/01 12:12:29;;;;;;;5.07;4.60;;;;;;;;;;4934455;29;20706;-66
2023/11/01 12:14:59;;;;;;;6.60;6.13;;;;;;;;;;4935559;29;21011;-67
2023/11/01 12:17:27;;;;;;;5.27;4.97;;;;;;;;;;4935388;29;20635;-68
2023/11/01 12:19:55;;;;;;;4.57;4.37;;;;;;;;;;4935271;29;20614;-65
2023/11/01 12:22:25;;;;;;;4.97;4.57;;;;;;;;;;4932967;29;20625;-65
2023/11/01 12:24:55;;;;;;;4.80;4.50;;;;;;;;;;4934608;29;20650;-66
2023/11/01 12:27:30;;;;;;;5.93;5.63;;;;;;;;;;4934225;29;20773;-65
2023/11/01 12:30:00;;;;;;;7.20;6.60;;;;;;;;;;4934653;29;20600;-66
2023/11/01 12:32:33;;;;;;;6.03;5.53;;;;;;;;;;4927948;29;20652;-67
2023/11/01 12:35:02;;;;;;;6.70;6.20;;;;;;;;;;4916430;29;20665;-65
2023/11/01 12:37:33;;;;;;;5.50;5.20;;;;;;;;;;4928381;29;20668;-65
2023/11/01 12:40:03;;;;;;;5.20;4.90;;;;;;;;;;4934769;29;20627;-64
2023/11/01 12:42:33;;;;;;;5.80;5.40;;;;;;;;;;4934323;29;20603;-66
2023/11/01 12:45:01;;;;;;;5.67;5.47;;;;;;;;;;4934766;29;21239;-66
2023/11/01 12:47:39;;;;;;;6.10;5.50;;;;;;;;;;4923433;29;20646;-65
2023/11/01 12:50:08;;;;;;;5.47;5.17;;;;;;;;;;4939188;29;21018;-67
2023/11/01 12:52:38;;;;;;;7.00;5.40;;;;;;;;;;4933154;29;20691;-67
2023/11/01 12:55:08;;;;;;;4.93;4.73;;;;;;;;;;4933700;29;21040;-66
2023/11/01 12:57:37;;;;;;;5.27;5.10;;;;;;;;;;4932186;29;20640;-66
2023/11/01 13:00:08;;;;;;;5.40;5.10;;;;;;;;;;4933897;29;20985;-65
2023/11/01 13:02:36;;;;;;;6.40;5.30;;;;;;;;;;4932229;29;20682;-67
2023/11/01 13:05:05;;;;;;;5.30;5.00;;;;;;;;;;4932866;29;20629;-66
2023/11/01 13:07:34;;;;;;;5.67;5.47;;;;;;;;;;4933667;29;20595;-66
2023/11/01 13:10:04;;;;;;;6.27;5.97;;;;;;;;;;4932693;29;20619;-66
2023/11/01 13:12:32;;;;;;;6.33;6.00;;;;;;;;;;4934596;29;20654;-65
2023/11/01 13:15:01;;;;;;;5.40;5.30;;;;;;;;;;4932515;29;20668;-65
2023/11/01 13:17:29;;;;;;;8.27;7.40;;;;;;;;;;4934198;29;20632;-66
2023/11/01 13:19:57;;;;;;;6.40;6.07;;;;;;;;;;4931536;29;20636;-65
2023/11/01 13:22:25;;;;;;;6.60;6.20;;;;;;;;;;4934658;29;20612;-65
2023/11/01 13:24:53;;;;;;;6.30;6.10;;;;;;;;;;4932740;29;20635;-66
2023/11/01 13:27:23;;;;;;;6.53;6.23;;;;;;;;;;4933540;29;20664;-65
2023/11/01 13:29:52;;;;;;;6.60;6.20;;;;;;;;;;4932334;29;21162;-66
2023/11/01 13:32:20;;;;;;;6.83;6.60;;;;;;;;;;4935243;29;20624;-65
2023/11/01 13:34:48;;;;;;;7.20;7.00;;;;;;;;;;4936219;29;21216;-66
2023/11/01 13:37:17;;;;;;;7.80;7.40;;;;;;;;;;4937892;29;20726;-67
2023/11/01 13:39:45;;;;;;;8.53;7.77;;;;;;;;;;4936469;29;20628;-65
2023/11/01 13:42:14;;;;;;;7.50;7.30;;;;;;;;;;4924622;29;20618;-65
2023/11/01 13:44:43;;;;;;;8.77;7.97;;;;;;;;;;4932052;29;20677;-65
2023/11/01 13:47:11;;;;;;;7.70;7.30;;;;;;;;;;4932970;29;20629;-65
2023/11/01 13:49:41;;;;;;;8.23;7.60;;;;;;;;;;4937015;29;20648;-66
2023/11/01 13:52:11;;;;;;;7.20;6.90;;;;;;;;;;4932413;29;20683;-67
2023/11/01 13:54:39;;;;;;;6.97;6.70;;;;;;;;;;4931270;29;20643;-65
2023/11/01 13:57:07;;;;;;;6.93;6.53;;;;;;;;;;4943458;29;21014;-64
2023/11/01 13:59:36;;;;;;;6.90;6.60;;;;;;;;;;4943626;29;20608;-64
2023/11/01 14:02:06;;;;;;;6.93;6.63;;;;;;;;;;4936978;29;20628;-64
2023/11/01 14:04:34;;;;;;;6.63;6.23;;;;;;;;;;4935675;29;21269;-64
2023/11/01 14:07:02;;;;;;;6.43;6.13;;;;;;;;;;4937374;29;20978;-63
2023/11/01 14:09:30;;;;;;;6.20;5.90;;;;;;;;;;4937198;29;20628;-64
2023/11/01 14:12:00;;;;;;;6.60;6.40;;;;;;;;;;4926264;29;20670;-63
2023/11/01 14:14:28;;;;;;;6.03;5.83;;;;;;;;;;4918328;29;20597;-66
2023/11/01 14:16:57;;;;;;;6.53;6.00;;;;;;;;;;4918837;29;20665;-64
2023/11/01 14:19:26;;;;;;;5.97;5.77;;;;;;;;;;4936559;29;20631;-65
2023/11/01 14:21:54;;;;;;;5.17;4.97;;;;;;;;;;4933533;29;20636;-64
2023/11/01 14:24:22;;;;;;;5.80;5.60;;;;;;;;;;4937477;29;20623;-64
2023/11/01 14:26:51;;;;;;;5.33;4.93;;;;;;;;;;4928082;29;20637;-65
2023/11/01 14:29:19;;;;;;;5.20;5.00;;;;;;;;;;4917708;29;21047;-65
2023/11/01 14:31:47;;;;;;;5.27;5.07;;;;;;;;;;4918242;29;20624;-65
2023/11/01 14:34:15;;;;;;;4.97;4.67;;;;;;;;;;4918209;29;20621;-65
2023/11/01 14:36:45;;;;;;;4.77;4.60;;;;;;;;;;4917955;29;20667;-66
2023/11/01 14:39:13;;;;;;;5.17;4.80;;;;;;;;;;4922240;29;21180;-66
2023/11/01 14:41:44;;;;;;;4.80;4.50;;;;;;;;;;4917612;29;20589;-66
2023/11/01 14:44:13;;;;;;;8.23;5.07;;;;;;;;;;4916830;29;21039;-65
2023/11/01 14:46:42;;;;;;;4.70;4.30;;;;;;;;;;4917338;29;20613;-65
2023/11/01 14:49:11;;;;;;;4.30;4.10;;;;;;;;;;4935133;29;21089;-66
2023/11/01 14:51:42;;;;;;;4.37;4.10;;;;;;;;;;4936468;29;20628;-65
2023/11/01 14:54:13;;;;;;;5.07;4.67;;;;;;;;;;4936730;29;20592;-65